Kisakata, Japan
Current Conditions -  °F | °C
As of 12:00 PM on Saturday 25 Oct 2014 (Local Time) from RJSY Reporting Station
Few Clouds Few Clouds  
Wind Chill: 68°   Ceiling: Unl
Heat Index: 68°   Visibility: 6mi
Dew Point: 46°   Wind: 5mph
Humidity: 46%   Direction: 240°WSW
Pressure: 30.15"   Gusts: NA
Location:  39.22°N, 139.9°E
Report Text: RJSY 250300Z 24004KT 180V280 9999 FEW015 20/08 Q1021
Loading
Personal Weather Stations






























Interactive Weather Map New forecast layout! Learn more

10-Day Weather Forecast

Advertisements
Track Severe Weather on mobile